Time;durP1;ratioP1;P1;durP2;ratioP2;P2;SDS_P1;SDS_P2;PMS_P1;PMS_P2;Temp;Humidity;BMP_temperature;BMP_pressure;BME280_temperature;BME280_humidity;BME280_pressure;Samples;Min_cycle;Max_cycle;Signal;HPM_P1;HPM_P2
2024/02/08 00:01:39;;;;;;;;;53.50;42.00;;;;;8.24;96.97;98436.19;6303672;20;2862303;-45
2024/02/08 00:04:09;;;;;;;;;59.67;46.33;;;;;8.21;96.75;98433.75;6273424;20;2877396;-47
2024/02/08 00:06:38;;;;;;;;;56.67;46.67;;;;;8.14;97.53;98431.53;6309106;20;2850280;-47
2024/02/08 00:09:08;;;;;;;;;63.33;47.67;;;;;8.03;97.71;98428.78;6309139;20;3638888;-44
2024/02/08 00:11:38;;;;;;;;;69.00;52.00;;;;;8.14;98.21;98423.50;6311829;20;3634646;-48
2024/02/08 00:14:08;;;;;;;;;72.67;54.33;;;;;8.18;97.90;98432.16;6309740;20;3635767;-45
2024/02/08 00:16:37;;;;;;;;;71.00;58.00;;;;;8.06;98.29;98431.22;6311908;20;2859862;-46
2024/02/08 00:19:07;;;;;;;;;63.33;52.00;;;;;8.01;98.99;98428.03;6311539;20;2863882;-46
2024/02/08 00:21:37;;;;;;;;;56.67;45.33;;;;;8.13;98.09;98434.31;6311507;20;3619020;-43
2024/02/08 00:24:07;;;;;;;;;58.00;44.33;;;;;7.93;99.07;98427.72;6310300;20;3629497;-43
2024/02/08 00:26:36;;;;;;;;;55.33;43.33;;;;;7.96;100.00;98432.84;6309790;20;3612822;-45
2024/02/08 00:29:06;;;;;;;;;50.67;39.00;;;;;7.99;99.22;98426.44;6308900;20;2858804;-45
2024/02/08 00:31:35;;;;;;;;;51.50;41.50;;;;;7.92;99.86;98426.00;6311702;20;2854511;-45
2024/02/08 00:34:05;;;;;;;;;61.00;49.00;;;;;7.75;100.00;98429.03;6277850;20;2885856;-46
2024/02/08 00:36:34;;;;;;;;;63.67;51.67;;;;;7.97;99.90;98439.88;6307640;20;2877423;-43
2024/02/08 00:39:06;;;;;;;;;63.33;47.33;;;;;7.99;99.73;98442.47;6311175;20;3629449;-46
2024/02/08 00:41:37;;;;;;;;;60.33;47.00;;;;;7.96;99.55;98443.53;6309086;20;2870123;-46
2024/02/08 00:44:05;;;;;;;;;52.50;41.00;;;;;7.80;100.00;98448.25;6307878;20;2859760;-43
2024/02/08 00:46:34;;;;;;;;;36.33;31.33;;;;;7.82;100.00;98440.97;6281213;20;3603424;-46
2024/02/08 00:49:04;;;;;;;;;42.67;33.00;;;;;7.94;100.00;98445.44;6277115;20;2880631;-45
2024/02/08 00:51:32;;;;;;;;;30.67;30.67;;;;;7.79;100.00;98441.19;6313788;20;3580483;-45
2024/02/08 00:54:02;;;;;;;;;30.50;30.00;;;;;7.75;100.00;98443.22;6277903;20;2859641;-47
2024/02/08 00:56:34;;;;;;;;;31.00;29.33;;;;;7.75;100.00;98429.03;6278806;20;3592947;-44
2024/02/08 00:59:03;;;;;;;;;24.33;23.00;;;;;7.72;100.00;98426.56;6310338;20;3583587;-44
2024/02/08 01:01:32;;;;;;;;;35.33;31.67;;;;;7.86;100.00;98431.78;6306516;20;2855501;-45
2024/02/08 01:04:02;;;;;;;;;38.00;32.00;;;;;7.57;100.00;98437.34;6307750;20;2863931;-43
2024/02/08 01:06:31;;;;;;;;;42.00;36.67;;;;;7.59;100.00;98430.09;6309899;20;3597133;-45
2024/02/08 01:09:00;;;;;;;;;49.50;42.00;;;;;7.60;100.00;98421.09;6278515;20;2857585;-46
2024/02/08 01:11:29;;;;;;;;;65.00;50.67;;;;;7.76;100.00;98426.22;6278112;20;2878992;-43
2024/02/08 01:13:59;;;;;;;;;66.33;51.00;;;;;7.83;100.00;98432.00;6307206;20;3637816;-47
2024/02/08 01:16:33;;;;;;;;;71.33;53.33;;;;;7.48;100.00;98421.97;6309271;20;3654473;-42
2024/02/08 01:19:03;;;;;;;;;82.33;60.33;;;;;7.57;100.00;98429.34;6305567;20;3644105;-47
2024/02/08 01:21:34;;;;;;;;;78.00;58.33;;;;;7.77;100.00;98427.09;6309686;20;3632601;-44
2024/02/08 01:24:04;;;;;;;;;73.33;57.67;;;;;7.45;100.00;98425.72;6308303;20;2879682;-44
2024/02/08 01:26:34;;;;;;;;;77.00;59.33;;;;;7.53;100.00;98416.28;6309149;20;2877578;-46
2024/02/08 01:29:06;;;;;;;;;72.67;59.33;;;;;7.46;100.00;98408.72;6307074;20;2871286;-45
2024/02/08 01:31:37;;;;;;;;;73.33;55.33;;;;;7.21;100.00;98406.91;6307491;20;3644044;-47
2024/02/08 01:34:10;;;;;;;;;84.00;63.67;;;;;7.28;100.00;98412.66;6307527;20;3653405;-44
2024/02/08 01:36:40;;;;;;;;;77.67;60.00;;;;;7.26;100.00;98412.75;6308054;20;3638867;-47
2024/02/08 01:39:13;;;;;;;;;83.67;68.33;;;;;7.13;100.00;98419.88;6308347;20;3658715;-47
2024/02/08 01:41:43;;;;;;;;;87.33;68.33;;;;;7.42;100.00;98414.38;6276551;20;3678352;-43
2024/02/08 01:44:12;;;;;;;;;83.00;65.67;;;;;7.63;100.00;98410.19;6273508;20;3663823;-44
2024/02/08 01:46:43;;;;;;;;;88.33;75.00;;;;;7.43;100.00;98406.25;6304710;20;3650282;-43
2024/02/08 01:49:26;;;;;;;;;104.33;88.67;;;;;7.54;100.00;98407.34;6273869;20;3695031;-43
2024/02/08 01:52:00;;;;;;;;;104.67;88.33;;;;;7.57;100.00;98404.44;6275871;20;3694039;-44
2024/02/08 01:54:31;;;;;;;;;102.00;88.00;;;;;7.51;100.00;98403.06;6273347;20;3681495;-44
2024/02/08 01:57:03;;;;;;;;;85.67;65.00;;;;;7.34;100.00;98406.03;6275248;20;3670034;-43
2024/02/08 01:59:33;;;;;;;;;66.67;53.33;;;;;7.52;100.00;98407.44;6273374;20;3621126;-44
2024/02/08 02:02:07;;;;;;;;;54.33;43.67;;;;;7.53;100.00;98400.25;6307047;20;2870152;-44
2024/02/08 02:04:39;;;;;;;;;66.67;49.00;;;;;7.45;100.00;98396.34;6307848;20;3630577;-43
2024/02/08 02:07:10;;;;;;;;;65.33;52.67;;;;;7.46;100.00;98398.03;6305736;20;2867995;-44
2024/02/08 02:09:39;;;;;;;;;83.67;66.00;;;;;7.44;100.00;98404.44;6307564;20;3649624;-43
2024/02/08 02:12:16;;;;;;;;;80.67;60.67;;;;;7.62;100.00;98397.81;6306556;20;3662388;-43
2024/02/08 02:14:47;;;;;;;;;87.67;76.67;;;;;7.58;100.00;98401.69;6269690;20;3657576;-43
2024/02/08 02:17:20;;;;;;;;;92.00;84.67;;;;;7.45;100.00;98393.66;6271974;20;3657547;-43
2024/02/08 02:19:50;;;;;;;;;95.33;81.00;;;;;7.76;100.00;98398.66;6276218;20;3678477;-44
2024/02/08 02:22:21;;;;;;;;;81.67;68.67;;;;;7.62;100.00;98388.94;6275904;20;3654488;-45
2024/02/08 02:24:51;;;;;;;;;73.67;58.00;;;;;7.62;100.00;98392.47;6271789;20;3629435;-47
2024/02/08 02:27:21;;;;;;;;;71.33;58.00;;;;;7.76;100.00;98387.97;6304061;20;3623181;-45
2024/02/08 02:29:53;;;;;;;;;51.50;40.00;;;;;7.56;100.00;98392.91;6303667;20;2871117;-44
2024/02/08 02:32:22;;;;;;;;;51.00;43.50;;;;;7.73;100.00;98393.53;6274379;20;2859675;-43
2024/02/08 02:34:53;;;;;;;;;46.00;38.00;;;;;7.54;100.00;98386.81;6271957;20;3612088;-45
2024/02/08 02:37:22;;;;;;;;;51.00;40.00;;;;;7.53;100.00;98381.56;6306654;20;3605453;-49
2024/02/08 02:39:52;;;;;;;;;51.33;41.67;;;;;7.75;100.00;98378.25;6271756;20;2847171;-45
2024/02/08 02:42:21;;;;;;;;;54.00;43.00;;;;;7.61;100.00;98380.09;6306655;20;2870053;-44
2024/02/08 02:44:49;;;;;;;;;46.00;38.00;;;;;7.58;100.00;98382.09;6270806;20;2492015;-44
2024/02/08 02:47:25;;;;;;;;;43.67;37.00;;;;;7.59;100.00;98384.69;6273016;20;2868204;-45
2024/02/08 02:49:58;;;;;;;;;52.00;43.00;;;;;7.73;100.00;98382.84;6304509;20;2858621;-44
2024/02/08 02:52:26;;;;;;;;;48.50;42.00;;;;;7.78;100.00;98380.72;6270741;20;2467997;-43
2024/02/08 02:54:56;;;;;;;;;48.00;38.50;;;;;7.76;100.00;98372.78;6269173;20;2861733;-44
2024/02/08 02:57:25;;;;;;;;;48.00;40.00;;;;;7.70;100.00;98379.44;6275301;20;2853406;-44
2024/02/08 02:59:59;;;;;;;;;42.00;36.33;;;;;7.77;100.00;98385.19;6274550;20;2864197;-47
2024/02/08 03:02:29;;;;;;;;;46.33;37.33;;;;;7.76;100.00;98374.63;6304459;20;3610735;-43
2024/02/08 03:04:58;;;;;;;;;39.67;36.33;;;;;7.75;100.00;98381.78;6306157;20;3603463;-44
2024/02/08 03:07:28;;;;;;;;;43.33;36.67;;;;;7.81;100.00;98386.69;6274284;20;2868147;-43
2024/02/08 03:09:57;;;;;;;;;29.00;25.50;;;;;7.81;100.00;98391.16;6302408;20;2850367;-43
2024/02/08 03:12:26;;;;;;;;;25.00;24.00;;;;;7.86;100.00;98383.69;6274632;20;2848204;-44
2024/02/08 03:15:00;;;;;;;;;27.00;24.00;;;;;7.75;100.00;98400.47;6272554;20;2844179;-44
2024/02/08 03:17:32;;;;;;;;;28.50;26.00;;;;;7.83;100.00;98397.28;6271555;20;2845064;-44
2024/02/08 03:20:04;;;;;;;;;22.00;17.00;;;;;7.73;100.00;98404.22;6274916;20;3587828;-43
2024/02/08 03:22:34;;;;;;;;;28.00;24.50;;;;;7.77;100.00;98406.56;6270836;20;2500279;-44
2024/02/08 03:25:06;;;;;;;;;26.50;24.00;;;;;7.65;100.00;98407.44;6273652;20;2842993;-44
2024/02/08 03:27:34;;;;;;;;;26.00;22.50;;;;;7.75;100.00;98408.50;6275529;20;2844141;-43
2024/02/08 03:30:04;;;;;;;;;31.00;23.33;;;;;7.54;100.00;98408.19;6274130;20;2857786;-43
2024/02/08 03:32:35;;;;;;;;;24.33;17.33;;;;;7.65;100.00;98408.28;6305672;20;3565881;-44
2024/02/08 03:35:05;;;;;;;;;26.00;22.00;;;;;7.67;100.00;98414.38;6273825;20;2841985;-44
2024/02/08 03:37:34;;;;;;;;;27.00;25.00;;;;;7.66;100.00;98412.69;6273366;20;2846140;-43
2024/02/08 03:40:03;;;;;;;;;28.00;24.00;;;;;7.74;100.00;98416.59;6270648;20;2500278;-44
2024/02/08 03:42:32;;;;;;;;;33.50;31.50;;;;;7.74;100.00;98405.91;6279276;20;2862900;-43
2024/02/08 03:45:01;;;;;;;;;33.00;28.00;;;;;7.70;100.00;98411.47;6278668;20;2844048;-43
2024/02/08 03:47:32;;;;;;;;;39.33;34.00;;;;;7.66;100.00;98412.69;6277858;20;2839902;-44
2024/02/08 03:50:01;;;;;;;;;36.33;27.33;;;;;7.77;100.00;98411.06;6307662;20;3619018;-43
2024/02/08 03:52:31;;;;;;;;;40.33;37.33;;;;;7.57;100.00;98415.97;6279863;20;2856576;-45
2024/02/08 03:55:01;;;;;;;;;34.33;30.67;;;;;7.80;100.00;98410.84;6312671;20;3606523;-44
2024/02/08 03:57:30;;;;;;;;;21.50;18.50;;;;;7.86;100.00;98400.56;6275262;20;2500342;-48
2024/02/08 04:00:01;;;;;;;;;29.50;26.50;;;;;7.67;100.00;98414.38;6276658;20;2830644;-47
2024/02/08 04:02:34;;;;;;;;;28.00;26.00;;;;;7.50;100.00;98412.00;6279194;20;2845118;-44
2024/02/08 04:05:09;;;;;;;;;33.00;28.50;;;;;7.80;100.00;98402.84;6278584;20;2860830;-44
2024/02/08 04:07:57;;;;;;;;;30.00;25.00;;;;;7.67;100.00;98408.19;6277512;20;2845112;-44
2024/02/08 04:53:30;;;;;;;;;30.50;24.00;;;;;7.76;100.00;98409.34;6272054;20;2500337;-45
2024/02/08 04:55:23;;;;;;;;;45.33;38.67;;;;;7.93;100.00;98397.47;6276856;20;3616958;-46
2024/02/08 04:57:55;;;;;;;;;80.33;69.00;;;;;8.00;100.00;98388.88;6308421;20;3633963;-45
2024/02/08 05:00:45;;;;;;;;;44.00;39.50;;;;;7.76;100.00;98387.97;6306755;20;2860867;-45
2024/02/08 05:03:17;;;;;;;;;64.00;51.67;;;;;7.80;100.00;98389.47;6277120;20;2859990;-45
2024/02/08 05:05:46;;;;;;;;;66.50;53.00;;;;;7.78;100.00;98391.41;6310116;20;2866370;-46
2024/02/08 05:08:16;;;;;;;;;64.50;50.50;;;;;7.86;100.00;98389.03;6278695;20;2860810;-47
2024/02/08 05:10:44;;;;;;;;;62.00;52.50;;;;;7.76;100.00;98378.13;6277272;20;2854447;-45
2024/02/08 05:13:17;;;;;;;;;98.00;92.00;;;;;8.11;100.00;98385.47;6275741;20;3677329;-45
2024/02/08 05:15:46;;;;;;;;;51.00;41.00;;;;;7.89;100.00;98384.31;6275062;20;2861777;-44
2024/02/08 05:18:16;;;;;;;;;54.00;45.00;;;;;7.77;100.00;98389.69;6274836;20;2844131;-43
2024/02/08 05:20:48;;;;;;;;;30.00;28.00;;;;;7.77;100.00;98384.34;6277819;20;2848281;-44
2024/02/08 05:23:17;;;;;;;;;48.00;40.33;;;;;7.83;100.00;98389.25;6308885;20;2873253;-45
2024/02/08 05:25:48;;;;;;;;;34.00;32.00;;;;;7.84;100.00;98401.63;6309838;20;3571469;-45
2024/02/08 05:28:18;;;;;;;;;32.33;28.33;;;;;7.79;100.00;98393.09;6306880;20;2853389;-44
2024/02/08 05:30:49;;;;;;;;;38.00;33.33;;;;;7.87;100.00;98404.09;6308226;20;2842041;-44
2024/02/08 05:33:17;;;;;;;;;30.67;27.00;;;;;7.69;100.00;98412.47;6308681;20;3584585;-45
2024/02/08 05:35:46;;;;;;;;;25.00;22.00;;;;;7.79;100.00;98409.13;6307997;20;2850394;-43
2024/02/08 05:38:15;;;;;;;;;27.00;24.50;;;;;7.91;100.00;98410.94;6277208;20;2850291;-46
2024/02/08 05:40:44;;;;;;;;;24.00;24.00;;;;;7.91;100.00;98413.59;6278204;20;2841952;-44
2024/02/08 05:43:15;;;;;;;;;27.50;22.00;;;;;7.70;100.00;98416.81;6276442;20;2854469;-44
2024/02/08 05:45:44;;;;;;;;;26.00;23.50;;;;;7.85;100.00;98422.06;6278022;20;2850307;-45
2024/02/08 05:48:17;;;;;;;;;28.50;26.00;;;;;7.75;100.00;98423.69;6276977;20;2849356;-44
2024/02/08 05:50:46;;;;;;;;;26.50;22.00;;;;;7.83;100.00;98426.66;6278086;20;2846147;-44
2024/02/08 05:53:17;;;;;;;;;26.50;25.00;;;;;7.76;100.00;98420.88;6277652;20;2834775;-46
2024/02/08 05:55:48;;;;;;;;;21.00;21.00;;;;;7.82;100.00;98430.28;6277305;20;2839863;-45
2024/02/08 05:58:19;;;;;;;;;25.50;23.00;;;;;7.75;100.00;98426.34;6277455;20;2845168;-45
2024/02/08 06:01:01;;;;;;;;;28.50;23.50;;;;;7.81;100.00;98418.75;6268165;20;2487824;-44
2024/02/08 06:03:33;;;;;;;;;26.00;23.00;;;;;7.84;100.00;98436.38;6273802;20;2849255;-45
2024/02/08 06:06:16;;;;;;;;;26.00;24.50;;;;;7.92;100.00;98431.34;6276382;20;2844064;-44
2024/02/08 06:08:46;;;;;;;;;28.00;25.00;;;;;7.87;100.00;98437.03;6278596;20;2840938;-43
2024/02/08 06:11:19;;;;;;;;;31.50;25.50;;;;;7.83;100.00;98434.69;6274476;20;2844169;-44
2024/02/08 06:13:59;;;;;;;;;26.50;20.50;;;;;7.98;100.00;98436.28;6277093;20;2825307;-44
2024/02/08 06:16:45;;;;;;;;;25.00;23.00;;;;;7.88;100.00;98440.56;6274490;20;2838921;-44
2024/02/08 06:19:17;;;;;;;;;32.00;25.67;;;;;7.90;100.00;98452.00;6275864;20;2852452;-45
2024/02/08 06:21:47;;;;;;;;;32.33;28.00;;;;;7.93;100.00;98450.94;6311575;20;3602418;-44
2024/02/08 06:27:13;;;;;;;;;41.00;36.33;;;;;8.08;100.00;98468.53;6310368;20;3601401;-45
2024/02/08 06:29:43;;;;;;;;;50.50;40.00;;;;;7.93;100.00;98454.44;6274189;20;2875358;-46
2024/02/08 06:32:23;;;;;;;;;49.00;37.67;;;;;7.92;100.00;98458.06;6278833;20;3614886;-44
2024/02/08 06:38:02;;;;;;;;;43.00;35.00;;;;;8.01;100.00;98457.44;6274389;20;3611682;-44
2024/02/08 06:40:40;;;;;;;;;36.67;32.00;;;;;8.13;100.00;98455.69;6306781;20;3618059;-44
2024/02/08 07:41:53;;;;;;;;;38.00;33.33;;;;;9.28;99.27;98510.69;6281714;20;3620087;-43
2024/02/08 07:44:30;;;;;;;;;35.33;30.33;;;;;9.75;96.14;98507.06;6279764;20;3619054;-46
2024/02/08 07:47:06;;;;;;;;;30.67;29.67;;;;;8.99;99.20;98511.03;6277899;20;2860911;-45
2024/02/08 07:49:44;;;;;;;;;41.00;31.33;;;;;8.98;100.00;98507.50;6314088;20;3618003;-44
2024/02/08 07:52:19;;;;;;;;;35.50;30.50;;;;;9.00;100.00;98516.28;6280025;20;2677436;-45
2024/02/08 07:54:56;;;;;;;;;42.67;35.00;;;;;9.14;100.00;98517.06;6276211;20;3614867;-44
2024/02/08 07:57:26;;;;;;;;;41.00;35.00;;;;;9.13;100.00;98515.34;6312434;20;3607575;-44
2024/02/08 07:59:59;;;;;;;;;41.33;35.67;;;;;9.54;98.48;98519.41;6278606;20;2865134;-44
2024/02/08 08:02:29;;;;;;;;;42.67;35.00;;;;;9.52;96.85;98518.69;6311648;20;3607566;-45
2024/02/08 08:05:01;;;;;;;;;35.67;28.33;;;;;9.05;100.00;98515.06;6278532;20;2866016;-44
2024/02/08 08:07:34;;;;;;;;;30.67;28.67;;;;;9.30;100.00;98503.38;6311483;20;3600255;-44
2024/02/08 08:10:08;;;;;;;;;35.33;27.00;;;;;9.06;100.00;98509.59;6274187;20;3611817;-44
2024/02/08 08:12:39;;;;;;;;;39.00;31.33;;;;;9.19;100.00;98509.56;6310296;20;3612765;-45
2024/02/08 08:17:42;;;;;;;;;31.67;29.00;;;;;9.49;97.74;98505.53;6309226;20;3601378;-44
2024/02/08 08:20:15;;;;;;;;;33.00;28.00;;;;;9.71;96.60;98513.59;6311562;20;3604457;-45
2024/02/08 08:22:58;;;;;;;;;34.00;31.67;;;;;9.92;94.24;98515.59;6279642;20;3616029;-45
2024/02/08 08:25:29;;;;;;;;;29.00;25.00;;;;;9.52;97.62;98511.47;6310182;20;2858696;-45
2024/02/08 08:28:29;;;;;;;;;32.33;29.00;;;;;9.74;94.73;98512.50;6306221;20;2853415;-45
2024/02/08 08:31:16;;;;;;;;;31.33;28.67;;;;;9.87;94.57;98510.59;6314090;20;3605463;-45
2024/02/08 08:33:58;;;;;;;;;25.33;25.33;;;;;9.53;96.39;98512.34;6278842;20;2848206;-44
2024/02/08 08:36:30;;;;;;;;;32.67;31.00;;;;;9.63;98.25;98507.97;6309998;20;3609771;-45
2024/02/08 08:39:46;;;;;;;;;29.00;25.00;;;;;9.51;98.23;98500.91;6312276;20;2856626;-44
2024/02/08 08:41:49;;;;;;;;;32.67;29.67;;;;;9.95;97.06;98507.31;6311929;20;3585682;-47
2024/02/08 08:44:18;;;;;;;;;27.33;24.00;;;;;9.62;96.64;98507.13;6277891;20;3594057;-45
2024/02/08 08:46:47;;;;;;;;;33.00;30.67;;;;;10.03;94.96;98510.25;6314221;20;3600271;-47
2024/02/08 08:49:20;;;;;;;;;35.00;33.00;;;;;10.04;94.44;98517.34;6276944;20;2727467;-46
2024/02/08 08:51:58;;;;;;;;;33.33;27.33;;;;;10.05;94.67;98516.34;6308930;20;3615909;-46
2024/02/08 08:54:29;;;;;;;;;34.33;27.67;;;;;10.20;92.97;98509.78;6308817;20;3611740;-46
2024/02/08 08:56:58;;;;;;;;;25.00;24.00;;;;;10.77;90.20;98513.34;6274411;20;2852370;-45
2024/02/08 08:59:29;;;;;;;;;27.67;27.00;;;;;10.92;89.29;98516.59;6277354;20;3602335;-45
2024/02/08 09:02:00;;;;;;;;;25.33;22.33;;;;;10.79;89.91;98518.56;6305554;20;3589834;-46
2024/02/08 09:04:35;;;;;;;;;27.33;25.33;;;;;10.89;88.99;98520.38;6275493;20;2845114;-47
2024/02/08 09:07:10;;;;;;;;;31.00;27.67;;;;;11.58;83.97;98522.69;6313227;20;3598216;-44
2024/02/08 09:10:04;;;;;;;;;31.33;30.00;;;;;11.87;81.78;98524.78;6283420;20;3617241;-48
2024/02/08 09:12:39;;;;;;;;;32.00;31.00;;;;;11.81;81.90;98530.66;6276267;20;3610762;-45
2024/02/08 09:15:26;;;;;;;;;27.67;24.00;;;;;12.33;79.03;98523.50;6310412;20;3592996;-46
2024/02/08 09:17:58;;;;;;;;;31.00;25.67;;;;;12.29;79.17;98520.22;6275807;20;2848200;-46
2024/02/08 09:20:28;;;;;;;;;24.33;22.00;;;;;12.56;77.78;98523.31;6312272;20;3576520;-46
2024/02/08 09:23:02;;;;;;;;;24.00;21.00;;;;;13.01;75.53;98517.53;6276184;20;2854433;-46
2024/02/08 09:25:32;;;;;;;;;21.50;21.50;;;;;13.18;72.50;98520.38;6278484;20;2829450;-46
2024/02/08 09:28:23;;;;;;;;;16.00;16.00;;;;;12.99;73.51;98520.34;6284242;20;2494004;-47
2024/02/08 09:30:56;;;;;;;;;22.00;17.00;;;;;13.21;73.26;98515.69;6279153;20;2830578;-45
2024/02/08 09:33:44;;;;;;;;;20.67;20.67;;;;;13.66;70.77;98518.72;6282915;20;3578565;-47
2024/02/08 09:36:17;;;;;;;;;23.50;22.00;;;;;13.77;68.98;98513.19;6274456;20;2827398;-45
2024/02/08 09:38:50;;;;;;;;;32.00;28.33;;;;;13.89;69.78;98513.88;6279628;20;3581720;-45
2024/02/08 09:41:27;;;;;;;;;32.67;27.67;;;;;13.37;72.05;98506.06;6279730;20;3605535;-46
2024/02/08 09:43:56;;;;;;;;;16.00;13.00;;;;;13.33;68.35;98507.38;6274992;20;3539913;-46
2024/02/08 09:49:13;;;;;;;;;13.50;11.00;;;;;13.63;66.07;98502.81;6282823;20;2792062;-45
2024/02/08 09:51:56;;;;;;;;;12.50;11.00;;;;;13.72;65.66;98507.38;6279849;20;2790902;-44
2024/02/08 09:54:30;;;;;;;;;11.50;10.50;;;;;13.63;65.99;98505.53;6282140;20;2786942;-47
2024/02/08 09:57:21;;;;;;;;;16.00;15.00;;;;;14.11;65.49;98499.19;6284418;20;2491967;-49
2024/02/08 10:00:06;;;;;;;;;15.00;15.00;;;;;13.76;66.11;98497.13;6275142;20;2800288;-44
2024/02/08 10:02:40;;;;;;;;;14.00;12.67;;;;;13.88;66.21;98490.59;6306801;20;3509806;-47
2024/02/08 10:08:11;;;;;;;;;16.00;13.33;;;;;13.45;66.13;98482.97;6305066;20;3533716;-49
2024/02/08 10:10:44;;;;;;;;;14.50;13.00;;;;;13.45;66.74;98477.56;6275718;20;2498242;-44
2024/02/08 10:13:30;;;;;;;;;17.33;15.00;;;;;13.97;65.41;98488.88;6276159;20;3547177;-46
2024/02/08 10:16:09;;;;;;;;;11.00;10.00;;;;;14.09;63.64;98493.09;6278341;20;2787013;-45
2024/02/08 10:18:38;;;;;;;;;7.00;7.00;;;;;13.91;63.55;98495.69;6307779;20;2735792;-45
2024/02/08 10:21:13;;;;;;;;;12.80;10.00;;;;;13.88;64.87;98503.25;6330840;20;2786733;-45
2024/02/08 10:24:11;;;;;;;;;14.33;11.33;;;;;13.96;64.96;98506.06;6277083;20;3526293;-48
2024/02/08 10:26:45;;;;;;;;;19.00;13.00;;;;;14.15;64.07;98497.06;6308680;20;2804462;-48
2024/02/08 10:29:17;;;;;;;;;13.50;12.00;;;;;13.65;65.32;98492.75;6279981;20;2792011;-45
2024/02/08 10:31:54;;;;;;;;;11.33;10.33;;;;;14.18;64.79;98500.31;6277084;20;3512879;-45
2024/02/08 10:34:39;;;;;;;;;18.00;12.00;;;;;14.28;64.21;98490.34;6303115;20;3548174;-47
2024/02/08 10:40:28;;;;;;;;;11.00;10.00;;;;;14.47;62.35;98480.44;6311814;20;2789951;-45
2024/02/08 10:42:58;;;;;;;;;9.00;7.50;;;;;14.47;60.81;98486.69;6279889;20;2732585;-45
2024/02/08 10:45:40;;;;;;;;;12.33;11.00;;;;;14.37;60.61;98485.03;6278676;20;3515945;-45
2024/02/08 10:48:13;;;;;;;;;10.00;8.00;;;;;14.41;60.85;98481.06;6307615;20;2770081;-47
2024/02/08 10:50:45;;;;;;;;;10.00;10.00;;;;;14.77;60.29;98481.19;6275059;20;2798213;-50
2024/02/08 10:53:39;;;;;;;;;13.00;10.00;;;;;15.06;58.79;98481.88;6312469;20;2783610;-49
2024/02/08 10:56:40;;;;;;;;;14.50;13.00;;;;;14.57;59.99;98473.19;6277379;20;2496173;-50
2024/02/08 11:01:37;;;;;;;;;16.00;12.00;;;;;14.36;60.38;98457.19;6307036;20;2811745;-47
2024/02/08 11:04:21;;;;;;;;;12.00;12.00;;;;;14.71;60.08;98451.06;6272430;20;3516960;-50
2024/02/08 11:07:16;;;;;;;;;17.00;14.00;;;;;14.84;59.77;98442.59;6307927;20;3545469;-48
2024/02/08 11:09:46;;;;;;;;;12.33;11.67;;;;;14.88;59.71;98432.34;6276090;20;3514950;-47
2024/02/08 11:12:32;;;;;;;;;13.00;13.00;;;;;14.58;60.06;98439.75;6309543;20;2805524;-45
2024/02/08 11:15:14;;;;;;;;;12.00;7.50;;;;;15.14;58.58;98436.00;6275425;20;2760704;-46
2024/02/08 11:17:52;;;;;;;;;5.50;5.50;;;;;14.85;58.48;98441.63;6280291;20;2751833;-49
2024/02/08 11:20:43;;;;;;;;;10.00;10.00;;;;;14.55;58.43;98437.38;6280801;20;2795173;-46
2024/02/08 11:23:18;;;;;;;;;7.00;7.00;;;;;14.71;58.89;98437.56;6279807;20;2735735;-47
2024/02/08 11:25:52;;;;;;;;;9.00;9.00;;;;;15.07;57.56;98440.31;6319251;20;3472562;-45
2024/02/08 11:28:44;;;;;;;;;10.50;9.00;;;;;15.48;55.78;98440.69;6308042;20;2778467;-46
2024/02/08 11:31:17;;;;;;;;;8.40;8.00;;;;;15.59;55.92;98445.00;6301208;20;2739939;-47
2024/02/08 11:33:46;;;;;;;;;10.00;8.50;;;;;15.65;54.77;98444.38;6310616;20;2775838;-47
2024/02/08 11:36:21;;;;;;;;;9.00;9.00;;;;;15.66;54.66;98428.97;6274222;20;2750302;-47
2024/02/08 11:39:04;;;;;;;;;9.00;9.00;;;;;15.19;56.49;98438.22;6279691;20;2739887;-48
2024/02/08 11:41:32;;;;;;;;;9.67;9.67;;;;;16.28;54.92;98435.16;6274949;20;2776440;-45
2024/02/08 11:44:05;;;;;;;;;8.00;8.00;;;;;15.73;54.80;98430.09;6306045;20;2735697;-46
2024/02/08 11:46:37;;;;;;;;;9.00;9.00;;;;;15.71;55.82;98415.88;6276802;20;2752366;-49
2024/02/08 11:49:14;;;;;;;;;10.67;10.00;;;;;15.26;55.74;98433.06;6274938;20;2796207;-43
2024/02/08 11:51:45;;;;;;;;;6.00;5.00;;;;;15.87;54.32;98424.09;6329640;20;2754552;-47
2024/02/08 11:54:28;;;;;;;;;8.60;8.60;;;;;15.63;54.62;98423.88;6327880;20;2762849;-45
2024/02/08 11:56:58;;;;;;;;;9.00;9.00;;;;;15.22;55.95;98420.84;6290611;20;2752402;-48
2024/02/08 11:59:27;;;;;;;;;15.00;11.00;;;;;15.91;55.18;98417.34;6273437;20;3518025;-45
2024/02/08 12:01:58;;;;;;;;;10.00;9.00;;;;;15.88;54.75;98406.84;6308554;20;2757583;-48
2024/02/08 12:04:34;;;;;;;;;10.14;10.14;;;;;15.90;54.92;98402.09;6325142;20;1793467;-44
2024/02/08 12:07:07;;;;;;;;;11.00;9.33;;;;;15.33;55.52;98407.09;6312052;20;2774260;-47
2024/02/08 12:09:38;;;;;;;;;11.20;11.00;;;;;15.88;54.74;98401.44;6334295;20;2791991;-47
2024/02/08 12:12:09;;;;;;;;;12.67;10.00;;;;;15.83;54.62;98411.91;6279241;20;2778570;-47
2024/02/08 12:14:39;;;;;;;;;9.67;8.00;;;;;15.41;55.34;98404.44;6310433;20;3464883;-44
2024/02/08 12:17:07;;;;;;;;;11.00;10.33;;;;;15.44;55.58;98409.53;6307652;20;3522161;-46
2024/02/08 12:19:37;;;;;;;;;11.00;9.00;;;;;15.80;54.96;98401.41;6336805;20;2765958;-48
2024/02/08 12:22:14;;;;;;;;;11.00;9.50;;;;;16.17;53.83;98400.25;6288319;20;2783659;-50
2024/02/08 12:24:45;;;;;;;;;8.20;7.80;;;;;15.85;56.26;98407.19;6307035;20;2745090;-46
2024/02/08 12:27:25;;;;;;;;;9.20;7.20;;;;;15.54;54.62;98394.06;6336240;20;2742987;-47
2024/02/08 12:29:56;;;;;;;;;10.00;9.00;;;;;15.44;57.33;98396.03;6314075;20;2769148;-45
2024/02/08 12:32:28;;;;;;;;;15.00;11.00;;;;;16.01;54.36;98396.44;6285481;20;2783736;-48
2024/02/08 12:35:12;;;;;;;;;8.50;8.50;;;;;15.48;55.29;98394.72;6281363;20;2748211;-48
2024/02/08 12:37:46;;;;;;;;;10.00;3.50;;;;;15.49;56.82;98396.41;6282602;20;2787110;-48
2024/02/08 12:40:19;;;;;;;;;5.71;5.71;;;;;14.85;55.71;98384.88;6324892;20;3452493;-50
2024/02/08 12:42:53;;;;;;;;;9.00;8.29;;;;;15.19;55.55;98378.72;6351714;20;3463218;-48
2024/02/08 12:45:21;;;;;;;;;7.00;6.00;;;;;15.48;55.59;98386.59;6313626;20;2734797;-48
2024/02/08 12:47:49;;;;;;;;;8.00;8.00;;;;;15.48;55.85;98386.59;6278259;20;2757582;-47
2024/02/08 12:50:21;;;;;;;;;11.00;10.33;;;;;15.35;56.52;98386.16;6281227;20;3505611;-45
2024/02/08 12:52:56;;;;;;;;;11.00;10.33;;;;;15.41;56.68;98382.81;6311294;20;3506682;-48
2024/02/08 12:55:30;;;;;;;;;11.00;11.00;;;;;15.50;56.29;98379.16;6307626;20;3522149;-45
2024/02/08 12:58:03;;;;;;;;;11.00;10.00;;;;;15.18;57.02;98392.41;6313433;20;2789914;-46
2024/02/08 13:00:33;;;;;;;;;9.67;8.33;;;;;15.48;56.45;98391.13;6279809;20;2746121;-49
2024/02/08 13:03:05;;;;;;;;;9.00;9.00;;;;;15.66;55.57;98383.81;6316684;20;2752347;-45
2024/02/08 13:05:44;;;;;;;;;10.67;10.67;;;;;15.57;55.72;98382.94;6278472;20;2792069;-45
2024/02/08 13:08:22;;;;;;;;;15.60;12.80;;;;;15.79;55.91;98380.72;6338053;20;2796160;-48
2024/02/08 13:10:59;;;;;;;;;9.60;8.80;;;;;15.36;55.64;98385.97;6305989;20;2773208;-44
2024/02/08 13:13:31;;;;;;;;;10.50;7.50;;;;;15.84;54.83;98400.06;6276694;20;2759761;-45
2024/02/08 13:16:08;;;;;;;;;10.00;10.00;;;;;15.43;55.03;98405.16;6282874;20;2793036;-45
2024/02/08 13:18:38;;;;;;;;;12.50;12.00;;;;;15.75;54.71;98417.25;6282495;20;2802418;-45
2024/02/08 13:21:06;;;;;;;;;8.00;8.00;;;;;15.54;54.87;98409.47;6284564;20;2736856;-45
2024/02/08 13:23:35;;;;;;;;;9.00;9.00;;;;;15.58;54.39;98400.84;6277492;20;2749230;-46
2024/02/08 13:26:06;;;;;;;;;10.50;9.00;;;;;15.70;54.54;98403.34;6284424;20;2760690;-45
2024/02/08 13:28:43;;;;;;;;;20.00;16.50;;;;;15.67;54.27;98398.22;6277480;20;2844064;-46
2024/02/08 13:31:17;;;;;;;;;14.40;11.80;;;;;15.51;54.20;98404.38;6302257;20;2789878;-47
2024/02/08 13:33:47;;;;;;;;;27.00;22.33;;;;;15.92;53.84;98389.25;6280142;20;2846214;-46